Cuijk, Netherlands
Current Conditions -  °F | °C
As of 2:07 AM on Saturday 25 Oct 2014 (Local Time) from EHVK Reporting Station
Haze Haze  
Wind Chill: 52°   Ceiling: 700
Heat Index: 52°   Visibility: 5mi
Dew Point: 52°   Wind: 10mph
Humidity: 100%   Direction: 190°S
Pressure: 30"   Gusts: NA
Location:  51.73°N, 5.88°E
Report Text: EHVK 250007Z AUTO 19009KT 8000 BR FEW005 OVC007 11/11 Q1016 GRN
Loading
Personal Weather Stations






























Interactive Weather Map
Tropical Storm Tracking
New forecast layout! Learn more

10-Day Weather Forecast

Advertisements
Track Severe Weather on mobile